createdAt,value
2023-04-12T00:01:08.565Z,65.67
2023-04-12T00:03:36.357Z,65.18
2023-04-12T00:06:07.217Z,65.12
2023-04-12T00:08:35.427Z,66.33
2023-04-12T00:11:03.990Z,67.52
2023-04-12T00:13:31.857Z,67.37
2023-04-12T00:15:59.344Z,67.43
2023-04-12T00:18:27.443Z,67.56
2023-04-12T00:20:56.114Z,68.05
2023-04-12T00:23:25.099Z,68.11
2023-04-12T00:25:52.774Z,68.65
2023-04-12T00:28:20.304Z,69.13
2023-04-12T00:30:47.894Z,69.08
2023-04-12T00:33:15.361Z,68.09
2023-04-12T00:35:42.934Z,69.50
2023-04-12T00:38:10.970Z,70.52
2023-04-12T00:40:43.765Z,70.32
2023-04-12T00:43:15.242Z,70.15
2023-04-12T00:45:43.068Z,69.90
2023-04-12T00:48:10.579Z,70.32
2023-04-12T00:50:38.049Z,69.75
2023-04-12T00:53:05.522Z,71.65
2023-04-12T00:55:32.970Z,70.52
2023-04-12T00:58:01.748Z,72.44
2023-04-12T01:00:29.261Z,73.13
2023-04-12T01:02:56.994Z,75.04
2023-04-12T01:05:25.033Z,76.40
2023-04-12T01:08:00.714Z,75.64
2023-04-12T01:10:34.824Z,76.65
2023-04-12T01:13:09.836Z,76.54
2023-04-12T01:15:40.819Z,76.89
2023-04-12T01:18:11.034Z,77.77
2023-04-12T01:20:45.204Z,78.52
2023-04-12T01:23:18.891Z,80.66
2023-04-12T01:26:11.138Z,80.40
2023-04-12T01:28:43.729Z,82.35
2023-04-12T01:31:12.834Z,83.26
2023-04-12T01:33:42.036Z,82.93
2023-04-12T01:36:12.934Z,82.71
2023-04-12T01:38:41.540Z,83.34
2023-04-12T01:41:09.583Z,84.26
2023-04-12T01:43:42.765Z,85.10
2023-04-12T01:46:11.821Z,85.13
2023-04-12T01:48:39.867Z,85.95
2023-04-12T01:51:10.331Z,86.07
2023-04-12T01:53:44.818Z,86.08
2023-04-12T01:56:12.777Z,85.39
2023-04-12T01:58:42.100Z,86.69
2023-04-12T02:01:10.622Z,86.21
2023-04-12T02:03:38.704Z,86.83
2023-04-12T02:06:07.029Z,87.71
2023-04-12T02:08:34.514Z,88.62
2023-04-12T02:11:02.106Z,89.47
2023-04-12T02:13:29.545Z,89.86
2023-04-12T02:15:59.144Z,88.91
2023-04-12T02:18:27.855Z,90.48
2023-04-12T02:20:55.533Z,90.83
2023-04-12T02:23:23.027Z,89.87
2023-04-12T02:25:50.538Z,90.72
2023-04-12T02:28:18.008Z,91.67
2023-04-12T02:30:45.536Z,91.70
2023-04-12T02:33:15.569Z,91.03
2023-04-12T02:35:43.110Z,90.74
2023-04-12T02:38:10.640Z,89.06
2023-04-12T02:40:39.614Z,89.52
2023-04-12T02:43:07.339Z,90.05
2023-04-12T02:45:34.764Z,91.65
2023-04-12T02:48:02.296Z,90.95
2023-04-12T02:50:31.297Z,90.29
2023-04-12T02:52:58.752Z,90.56
2023-04-12T02:55:27.070Z,90.41
2023-04-12T02:57:55.549Z,91.76
2023-04-12T03:00:23.257Z,91.31
2023-04-12T03:02:51.384Z,91.92
2023-04-12T03:05:19.366Z,91.27
2023-04-12T03:07:48.944Z,92.12
2023-04-12T03:10:16.765Z,92.13
2023-04-12T03:12:44.220Z,91.66
2023-04-12T03:15:12.278Z,92.09
2023-04-12T03:17:39.772Z,93.27
2023-04-12T03:20:09.660Z,92.44
2023-04-12T03:22:37.506Z,93.01
2023-04-12T03:25:07.032Z,93.43
2023-04-12T03:27:34.467Z,93.96
2023-04-12T03:30:01.925Z,93.72
2023-04-12T03:32:29.369Z,93.20
2023-04-12T03:34:57.809Z,94.23
2023-04-12T03:37:25.470Z,93.29
2023-04-12T03:39:52.903Z,95.02
2023-04-12T03:42:32.407Z,95.71
2023-04-12T03:45:01.193Z,96.15
2023-04-12T03:47:28.917Z,95.63
2023-04-12T03:52:27.123Z,96.46
2023-04-12T03:54:54.602Z,96.47
2023-04-12T03:57:23.387Z,96.80
2023-04-12T03:59:51.934Z,97.30
2023-04-12T04:02:19.535Z,96.55
2023-04-12T04:04:47.126Z,97.79
2023-04-12T04:07:14.605Z,97.76
2023-04-12T04:09:42.061Z,97.98
2023-04-12T04:12:09.750Z,97.86
2023-04-12T04:14:38.549Z,98.06
2023-04-12T04:17:06.016Z,97.82
2023-04-12T04:19:33.474Z,97.54
2023-04-12T04:22:02.194Z,96.80
2023-04-12T04:24:29.874Z,96.38
2023-04-12T04:26:58.794Z,96.26
2023-04-12T04:29:27.661Z,96.85
2023-04-12T04:31:57.433Z,97.26
2023-04-12T04:34:25.297Z,97.68
2023-04-12T04:36:53.073Z,96.41
2023-04-12T04:39:20.573Z,97.26
2023-04-12T04:41:55.091Z,97.23
2023-04-12T04:44:22.686Z,97.32
2023-04-12T04:46:50.308Z,97.14
2023-04-12T04:49:19.090Z,96.81
2023-04-12T04:51:46.948Z,97.17
2023-04-12T04:54:14.799Z,97.95
2023-04-12T04:56:42.250Z,97.94
2023-04-12T04:59:09.720Z,97.86
2023-04-12T05:01:37.412Z,97.77
2023-04-12T05:04:05.096Z,96.89
2023-04-12T05:06:34.026Z,97.34
2023-04-12T05:09:01.637Z,96.93
2023-04-12T05:11:29.115Z,96.98
2023-04-12T05:13:56.547Z,96.88
2023-04-12T05:16:24.119Z,97.51
2023-04-12T05:18:51.590Z,97.38
2023-04-12T05:21:19.094Z,97.17
2023-04-12T05:23:48.697Z,97.53
2023-04-12T05:26:16.143Z,98.94
2023-04-12T05:28:43.630Z,98.51
2023-04-12T05:31:11.714Z,98.39
2023-04-12T05:33:39.230Z,98.25
2023-04-12T05:36:07.435Z,97.94
2023-04-12T05:38:34.931Z,98.14
2023-04-12T05:41:04.596Z,98.32
2023-04-12T05:43:32.938Z,98.24
2023-04-12T05:46:00.562Z,97.88
2023-04-12T05:48:28.078Z,97.37
2023-04-12T05:50:56.013Z,97.37
2023-04-12T05:53:23.844Z,97.63
2023-04-12T05:55:51.528Z,97.42
2023-04-12T05:58:20.383Z,97.30
2023-04-12T06:00:49.498Z,97.77
2023-04-12T06:03:17.214Z,97.87
2023-04-12T06:05:44.873Z,97.08
2023-04-12T06:08:14.531Z,97.52
2023-04-12T06:10:42.376Z,98.04
2023-04-12T06:13:09.852Z,97.60
2023-04-12T06:15:38.685Z,97.94
2023-04-12T06:18:08.104Z,98.02
2023-04-12T06:20:35.748Z,97.72
2023-04-12T06:23:03.266Z,98.72
2023-04-12T06:25:30.839Z,99.27
2023-04-12T06:27:58.341Z,99.20
2023-04-12T06:30:25.901Z,99.39
2023-04-12T06:32:54.781Z,99.71
2023-04-12T06:35:22.434Z,100.00
2023-04-12T06:37:49.972Z,100.00
2023-04-12T06:40:17.585Z,100.00
2023-04-12T06:42:45.056Z,99.81
2023-04-12T06:45:12.703Z,99.49
2023-04-12T06:47:40.244Z,99.62
2023-04-12T06:50:10.084Z,99.57
2023-04-12T06:52:37.623Z,99.75
2023-04-12T06:55:05.993Z,99.28
2023-04-12T06:57:33.490Z,99.02
2023-04-12T07:00:01.374Z,98.81
2023-04-12T07:02:28.869Z,99.59
2023-04-12T07:04:56.373Z,99.95
2023-04-12T07:07:25.210Z,98.86
2023-04-12T07:09:53.196Z,99.44
2023-04-12T07:12:20.835Z,99.40
2023-04-12T07:14:48.283Z,99.76
2023-04-12T07:17:15.755Z,99.53
2023-04-12T07:19:44.379Z,99.67
2023-04-12T07:22:13.682Z,99.21
2023-04-12T07:24:42.969Z,98.51
2023-04-12T07:27:11.039Z,98.75
2023-04-12T07:29:38.574Z,99.01
2023-04-12T07:32:06.579Z,98.87
2023-04-12T07:34:34.076Z,98.21
2023-04-12T07:37:01.760Z,97.45
2023-04-12T07:39:30.116Z,97.96
2023-04-12T07:41:58.901Z,97.61
2023-04-12T07:44:26.369Z,98.28
2023-04-12T07:46:53.805Z,98.22
2023-04-12T07:49:21.330Z,98.48
2023-04-12T07:51:48.793Z,98.93
2023-04-12T07:54:16.514Z,98.99
2023-04-12T07:57:00.551Z,99.33
2023-04-12T07:59:27.997Z,99.92
2023-04-12T08:01:55.623Z,99.36
2023-04-12T08:04:23.306Z,100.00
2023-04-12T08:06:50.904Z,99.74
2023-04-12T08:09:18.420Z,99.89
2023-04-12T08:11:47.214Z,100.00
2023-04-12T08:14:16.130Z,100.00
2023-04-12T08:16:43.606Z,99.92
2023-04-12T08:19:11.804Z,100.00
2023-04-12T08:21:39.291Z,100.00
2023-04-12T08:24:07.466Z,100.00
2023-04-12T08:26:34.881Z,99.86
2023-04-12T08:29:03.212Z,99.73
2023-04-12T08:31:32.117Z,99.56
2023-04-12T08:33:59.983Z,99.60
2023-04-12T08:36:28.155Z,100.00
2023-04-12T08:38:59.499Z,99.48
2023-04-12T08:41:27.332Z,99.59
2023-04-12T08:43:55.420Z,98.79
2023-04-12T08:46:23.608Z,98.57
2023-04-12T08:48:54.515Z,99.03
2023-04-12T08:51:22.814Z,98.91
2023-04-12T08:53:51.003Z,99.30
2023-04-12T08:56:18.521Z,99.16
2023-04-12T08:58:48.809Z,99.39
2023-04-12T09:01:17.371Z,99.61
2023-04-12T09:03:45.956Z,99.88
2023-04-12T09:06:15.574Z,100.00
2023-04-12T09:08:53.822Z,100.00
2023-04-12T09:11:25.610Z,100.00
2023-04-12T09:13:53.338Z,100.00
2023-04-12T09:16:35.427Z,100.00
2023-04-12T09:19:03.513Z,100.00
2023-04-12T09:21:34.527Z,98.47
2023-04-12T09:24:11.663Z,99.05
2023-04-12T09:26:41.210Z,98.94
2023-04-12T09:29:23.304Z,99.73
2023-04-12T09:31:56.947Z,99.22
2023-04-12T09:34:25.954Z,99.61
2023-04-12T09:36:56.868Z,100.00
2023-04-12T09:39:32.922Z,99.98
2023-04-12T09:42:14.870Z,100.00
2023-04-12T09:44:52.965Z,99.36
2023-04-12T09:47:20.521Z,98.54
2023-04-12T09:49:48.010Z,99.50
2023-04-12T09:52:16.967Z,99.67
2023-04-12T09:54:46.175Z,99.37
2023-04-12T09:57:14.249Z,98.92
2023-04-12T09:59:42.882Z,98.93
2023-04-12T10:02:15.109Z,99.63
2023-04-12T10:04:43.216Z,98.59
2023-04-12T10:07:11.844Z,99.53
2023-04-12T10:09:42.176Z,99.44
2023-04-12T10:12:11.090Z,98.77
2023-04-12T10:14:39.044Z,99.77
2023-04-12T10:17:06.751Z,99.64
2023-04-12T10:19:34.447Z,99.61
2023-04-12T10:22:02.772Z,99.70
2023-04-12T10:24:31.454Z,100.00
2023-04-12T10:27:03.184Z,99.49
2023-04-12T10:29:33.573Z,100.00
2023-04-12T10:32:20.777Z,100.00
2023-04-12T10:34:51.963Z,100.00
2023-04-12T10:37:19.506Z,100.00
2023-04-12T10:39:53.213Z,99.88
2023-04-12T10:42:23.954Z,100.00
2023-04-12T10:44:52.939Z,100.00
2023-04-12T10:48:01.697Z,100.00
2023-04-12T10:50:30.410Z,100.00
2023-04-12T10:53:24.906Z,100.00
2023-04-12T10:55:53.044Z,100.00
2023-04-12T10:58:59.762Z,100.00
2023-04-12T11:01:28.405Z,100.00
2023-04-12T11:04:16.869Z,100.00
2023-04-12T11:06:59.029Z,100.00
2023-04-12T11:09:28.073Z,100.00
2023-04-12T11:12:03.566Z,100.00
2023-04-12T11:14:38.707Z,100.00
2023-04-12T11:17:25.931Z,100.00
2023-04-12T11:19:58.410Z,100.00
2023-04-12T11:22:28.873Z,100.00
2023-04-12T11:24:58.007Z,100.00
2023-04-12T11:27:27.747Z,100.00
2023-04-12T11:29:58.093Z,99.74
2023-04-12T11:32:27.498Z,100.00
2023-04-12T11:34:56.800Z,100.00
2023-04-12T11:37:26.645Z,100.00
2023-04-12T11:39:56.361Z,100.00
2023-04-12T11:42:25.018Z,100.00
2023-04-12T11:44:58.977Z,99.60
2023-04-12T11:47:30.727Z,100.00
2023-04-12T11:49:59.892Z,100.00
2023-04-12T11:52:29.691Z,100.00
2023-04-12T11:54:58.834Z,100.00
2023-04-12T11:57:26.364Z,100.00
2023-04-12T11:59:53.858Z,100.00
2023-04-12T12:02:24.104Z,100.00
2023-04-12T12:04:56.106Z,99.37
2023-04-12T12:07:25.107Z,100.00
2023-04-12T12:09:52.790Z,99.82
2023-04-12T12:12:20.261Z,99.75
2023-04-12T12:14:48.248Z,99.33
2023-04-12T12:17:17.050Z,100.00
2023-04-12T12:19:45.809Z,99.96
2023-04-12T12:22:16.784Z,99.39
2023-04-12T12:24:48.578Z,99.47
2023-04-12T12:27:19.627Z,99.04
2023-04-12T12:29:50.357Z,98.70
2023-04-12T12:32:19.772Z,97.97
2023-04-12T12:34:55.090Z,96.70
2023-04-12T12:37:26.805Z,98.39
2023-04-12T12:40:13.732Z,98.07
2023-04-12T12:42:48.584Z,98.57
2023-04-12T12:45:17.852Z,97.54
2023-04-12T12:47:51.604Z,98.75
2023-04-12T12:50:21.073Z,99.02
2023-04-12T12:52:52.029Z,99.51
2023-04-12T12:55:21.131Z,99.51
2023-04-12T12:58:06.138Z,99.05
2023-04-12T13:00:34.785Z,99.32
2023-04-12T13:03:03.033Z,99.23
2023-04-12T13:05:30.996Z,100.00
2023-04-12T13:07:59.849Z,99.86
2023-04-12T13:10:27.431Z,100.00
2023-04-12T13:12:54.872Z,100.00
2023-04-12T13:15:24.265Z,100.00
2023-04-12T13:17:53.095Z,100.00
2023-04-12T13:20:20.975Z,100.00
2023-04-12T13:22:48.604Z,100.00
2023-04-12T13:25:19.691Z,100.00
2023-04-12T13:27:48.389Z,100.00
2023-04-12T13:30:16.042Z,100.00
2023-04-12T13:32:44.525Z,100.00
2023-04-12T13:35:12.162Z,100.00
2023-04-12T13:37:39.919Z,100.00
2023-04-12T13:40:08.545Z,100.00
2023-04-12T13:42:37.403Z,100.00
2023-04-12T13:45:05.436Z,100.00
2023-04-12T13:47:33.696Z,99.50
2023-04-12T13:50:01.549Z,98.81
2023-04-12T13:52:29.057Z,97.92
2023-04-12T13:54:58.549Z,97.75
2023-04-12T13:57:26.092Z,96.15
2023-04-12T13:59:54.945Z,96.20
2023-04-12T14:02:22.509Z,95.21
2023-04-12T14:04:52.522Z,96.90
2023-04-12T14:07:20.480Z,97.15
2023-04-12T14:09:48.767Z,96.70
2023-04-12T14:12:16.344Z,97.11
2023-04-12T14:14:43.848Z,96.70
2023-04-12T14:17:12.723Z,96.92
2023-04-12T14:19:40.273Z,95.69
2023-04-12T14:22:07.741Z,95.45
2023-04-12T14:24:35.783Z,96.84
2023-04-12T14:27:04.447Z,96.37
2023-04-12T14:29:31.949Z,96.18
2023-04-12T14:31:59.489Z,95.45
2023-04-12T14:34:28.537Z,96.33
2023-04-12T14:36:56.261Z,96.02
2023-04-12T14:39:24.447Z,95.80
2023-04-12T14:41:51.914Z,94.82
2023-04-12T14:44:20.750Z,95.44
2023-04-12T14:46:48.992Z,96.31
2023-04-12T14:49:16.510Z,96.97
2023-04-12T14:51:45.748Z,99.05
2023-04-12T14:54:13.264Z,99.16
2023-04-12T14:56:47.800Z,99.58
2023-04-12T14:59:18.881Z,99.74
2023-04-12T15:01:46.502Z,99.69
2023-04-12T15:04:14.124Z,98.93
2023-04-12T15:06:44.701Z,98.33
2023-04-12T15:09:15.580Z,97.04
2023-04-12T15:11:46.167Z,97.87
2023-04-12T15:14:17.688Z,98.28
2023-04-12T15:16:46.305Z,96.14
2023-04-12T15:19:19.996Z,95.70
2023-04-12T15:21:51.003Z,96.21
2023-04-12T15:24:19.909Z,94.16
2023-04-12T15:26:48.582Z,94.20
2023-04-12T15:29:16.827Z,95.14
2023-04-12T15:31:44.452Z,96.15
2023-04-12T15:34:13.264Z,95.61
2023-04-12T15:36:42.975Z,95.37
2023-04-12T15:39:10.787Z,94.55
2023-04-12T15:41:40.617Z,93.30
2023-04-12T15:44:09.472Z,92.69
2023-04-12T15:46:36.971Z,93.07
2023-04-12T15:49:05.415Z,92.60
2023-04-12T15:51:33.329Z,93.34
2023-04-12T15:54:01.002Z,90.86
2023-04-12T15:56:29.727Z,90.37
2023-04-12T15:58:59.037Z,90.33
2023-04-12T16:01:26.678Z,87.58
2023-04-12T16:03:55.578Z,88.33
2023-04-12T16:06:25.110Z,83.60
2023-04-12T16:08:54.392Z,80.58
2023-04-12T16:11:23.120Z,80.02
2023-04-12T16:13:51.507Z,78.72
2023-04-12T16:16:22.865Z,79.33
2023-04-12T16:18:52.957Z,79.80
2023-04-12T16:21:22.193Z,80.00
2023-04-12T16:23:51.246Z,80.80
2023-04-12T16:26:21.537Z,79.86
2023-04-12T16:28:49.127Z,78.76
2023-04-12T16:31:16.676Z,79.24
2023-04-12T16:33:45.550Z,78.94
2023-04-12T16:36:13.694Z,77.45
2023-04-12T16:38:41.172Z,78.16
2023-04-12T16:41:08.669Z,77.62
2023-04-12T16:43:36.241Z,78.18
2023-04-12T16:46:05.804Z,77.04
2023-04-12T16:48:33.804Z,77.05
2023-04-12T16:51:03.454Z,78.27
2023-04-12T16:53:30.996Z,79.44
2023-04-12T16:56:01.593Z,77.61
2023-04-12T16:58:29.210Z,77.01
2023-04-12T17:00:57.721Z,75.71
2023-04-12T17:03:25.722Z,76.43
2023-04-12T17:05:53.284Z,76.09
2023-04-12T17:08:22.609Z,76.01
2023-04-12T17:10:50.772Z,76.53
2023-04-12T17:13:20.203Z,78.22
2023-04-12T17:15:48.667Z,79.50
2023-04-12T17:18:16.304Z,80.42
2023-04-12T17:20:44.012Z,79.21
2023-04-12T17:23:11.786Z,80.60
2023-04-12T17:25:41.600Z,80.25
2023-04-12T17:28:09.451Z,80.09
2023-04-12T17:30:37.069Z,79.91
2023-04-12T17:33:07.184Z,81.21
2023-04-12T17:35:34.824Z,80.66
2023-04-12T17:38:02.327Z,79.99
2023-04-12T17:40:29.821Z,81.18
2023-04-12T17:42:58.602Z,80.40
2023-04-12T17:45:26.336Z,80.56
2023-04-12T17:47:54.562Z,81.19
2023-04-12T17:50:22.408Z,80.84
2023-04-12T17:52:49.880Z,80.32
2023-04-12T17:55:19.354Z,78.60
2023-04-12T17:57:46.815Z,79.13
2023-04-12T18:00:18.750Z,78.90
2023-04-12T18:02:46.795Z,77.86
2023-04-12T18:05:14.413Z,77.56
2023-04-12T18:07:42.451Z,78.84
2023-04-12T18:10:12.328Z,78.52
2023-04-12T18:12:40.795Z,78.97
2023-04-12T18:15:09.636Z,78.38
2023-04-12T18:17:39.556Z,78.09
2023-04-12T18:20:10.466Z,79.13
2023-04-12T18:22:38.124Z,78.27
2023-04-12T18:25:06.330Z,79.37
2023-04-12T18:27:33.778Z,79.05
2023-04-12T18:30:03.203Z,79.12
2023-04-12T18:32:30.886Z,78.81
2023-04-12T18:34:59.881Z,78.26
2023-04-12T18:37:27.943Z,77.52
2023-04-12T18:39:55.602Z,77.31
2023-04-12T18:42:23.142Z,78.79
2023-04-12T18:44:51.120Z,78.45
2023-04-12T18:47:18.758Z,77.78
2023-04-12T18:49:46.458Z,78.08
2023-04-12T18:52:15.650Z,69.42
2023-04-12T18:54:43.245Z,70.57
2023-04-12T18:57:10.748Z,70.85
2023-04-12T18:59:38.330Z,72.64
2023-04-12T19:02:05.986Z,74.03
2023-04-12T19:04:33.453Z,78.88
2023-04-12T19:07:01.008Z,81.52
2023-04-12T19:09:29.904Z,80.61
2023-04-12T19:11:57.407Z,81.72
2023-04-12T19:14:25.305Z,83.47
2023-04-12T19:16:53.032Z,83.37
2023-04-12T19:19:20.784Z,82.87
2023-04-12T19:21:48.336Z,84.97
2023-04-12T19:24:16.141Z,85.28
2023-04-12T19:26:47.249Z,86.77
2023-04-12T19:29:15.913Z,83.50
2023-04-12T19:31:47.126Z,84.72
2023-04-12T19:34:17.814Z,86.65
2023-04-12T19:36:45.718Z,85.55
2023-04-12T19:39:13.284Z,85.88
2023-04-12T19:41:40.969Z,86.24
2023-04-12T19:44:09.815Z,87.65
2023-04-12T19:46:38.746Z,88.29
2023-04-12T19:49:06.563Z,88.80
2023-04-12T19:51:34.532Z,89.75
2023-04-12T19:54:02.708Z,91.13
2023-04-12T19:56:31.382Z,91.18
2023-04-12T19:58:59.952Z,92.27
2023-04-12T20:01:29.121Z,92.29
2023-04-12T20:03:56.930Z,93.17
2023-04-12T20:06:26.359Z,93.37
2023-04-12T20:08:53.898Z,93.48
2023-04-12T20:11:21.636Z,93.79
2023-04-12T20:13:49.195Z,94.24
2023-04-12T20:16:17.394Z,94.68
2023-04-12T20:18:46.808Z,94.76
2023-04-12T20:21:14.273Z,95.28
2023-04-12T20:23:42.236Z,95.55
2023-04-12T20:26:09.827Z,95.49
2023-04-12T20:28:37.571Z,94.77
2023-04-12T20:31:05.969Z,93.53
2023-04-12T20:33:33.585Z,93.54
2023-04-12T20:36:03.282Z,94.22
2023-04-12T20:38:30.767Z,93.84
2023-04-12T20:40:58.516Z,94.72
2023-04-12T20:43:26.264Z,94.81
2023-04-12T20:45:53.857Z,95.44
2023-04-12T20:48:21.862Z,94.45
2023-04-12T20:50:50.333Z,95.24
2023-04-12T20:53:19.183Z,94.61
2023-04-12T20:55:46.651Z,94.98
2023-04-12T20:58:15.198Z,95.29
2023-04-12T21:00:42.698Z,95.37
2023-04-12T21:03:10.966Z,96.10
2023-04-12T21:05:38.651Z,95.72
2023-04-12T21:08:07.393Z,95.47
2023-04-12T21:10:36.182Z,95.19
2023-04-12T21:13:03.682Z,95.31
2023-04-12T21:15:35.328Z,93.91
2023-04-12T21:18:04.118Z,94.17
2023-04-12T21:20:31.831Z,95.05
2023-04-12T21:22:59.291Z,94.35
2023-04-12T21:25:26.785Z,94.36
2023-04-12T21:27:55.596Z,94.76
2023-04-12T21:30:23.057Z,93.63
2023-04-12T21:32:51.663Z,93.87
2023-04-12T21:35:20.940Z,93.39
2023-04-12T21:37:49.082Z,93.96
2023-04-12T21:40:17.080Z,94.90
2023-04-12T21:42:45.192Z,95.19
2023-04-12T21:45:14.284Z,94.13
2023-04-12T21:47:42.618Z,94.18
2023-04-12T21:50:11.180Z,94.20
2023-04-12T21:52:40.017Z,95.51
2023-04-12T21:55:08.031Z,94.38
2023-04-12T21:57:36.343Z,94.02
2023-04-12T22:00:05.223Z,95.04
2023-04-12T22:02:34.184Z,94.57
2023-04-12T22:05:01.768Z,94.74
2023-04-12T22:07:29.215Z,94.27
2023-04-12T22:09:58.349Z,94.31
2023-04-12T22:12:26.714Z,94.37
2023-04-12T22:14:54.470Z,93.78
2023-04-12T22:17:22.219Z,94.59
2023-04-12T22:19:53.126Z,94.60
2023-04-12T22:22:20.765Z,94.17
2023-04-12T22:24:48.271Z,94.75
2023-04-12T22:27:16.190Z,94.61
2023-04-12T22:29:43.705Z,92.83
2023-04-12T22:32:11.188Z,94.03
2023-04-12T22:34:39.157Z,93.34
2023-04-12T22:37:08.661Z,93.91
2023-04-12T22:39:36.490Z,93.25
2023-04-12T22:42:04.056Z,92.97
2023-04-12T22:44:38.360Z,93.71
2023-04-12T22:47:07.424Z,93.61
2023-04-12T22:49:46.162Z,94.32
2023-04-12T22:52:14.955Z,93.93
2023-04-12T22:54:42.427Z,93.37
2023-04-12T22:57:09.867Z,94.02
2023-04-12T22:59:37.370Z,93.92
2023-04-12T23:02:05.007Z,93.84
2023-04-12T23:04:32.888Z,94.55
2023-04-12T23:07:01.256Z,94.00
2023-04-12T23:09:30.085Z,93.23
2023-04-12T23:11:57.488Z,93.87
2023-04-12T23:14:24.928Z,93.70
2023-04-12T23:16:52.384Z,93.12
2023-04-12T23:19:20.246Z,92.97
2023-04-12T23:21:47.695Z,93.66
2023-04-12T23:24:16.426Z,93.48
2023-04-12T23:26:46.007Z,92.89
2023-04-12T23:29:13.616Z,92.78
2023-04-12T23:31:41.630Z,92.81
2023-04-12T23:34:09.107Z,92.76
2023-04-12T23:36:36.645Z,92.69
2023-04-12T23:39:08.609Z,92.64
2023-04-12T23:41:36.140Z,91.77
2023-04-12T23:44:05.058Z,91.83
2023-04-12T23:46:32.701Z,92.23
2023-04-12T23:49:00.180Z,92.78
2023-04-12T23:51:28.081Z,92.30
2023-04-12T23:53:55.529Z,92.69
2023-04-12T23:56:23.008Z,92.32
2023-04-12T23:58:50.480Z,93.32
